sensor_id;sensor_type;location;lat;lon;timestamp;P1;durP1;ratioP1;P2;durP2;ratioP2
14486;SDS011;7329;50.866;4.366;2022-12-29T00:00:09;1.65;;;1.55;;
14486;SDS011;7329;50.866;4.366;2022-12-29T00:02:14;2.40;;;1.60;;
14486;SDS011;7329;50.866;4.366;2022-12-29T00:04:17;2.45;;;1.77;;
14486;SDS011;7329;50.866;4.366;2022-12-29T00:06:19;1.98;;;1.65;;
14486;SDS011;7329;50.866;4.366;2022-12-29T00:08:22;2.53;;;1.77;;
14486;SDS011;7329;50.866;4.366;2022-12-29T00:10:39;2.25;;;1.50;;
14486;SDS011;7329;50.866;4.366;2022-12-29T00:12:42;2.15;;;1.67;;
14486;SDS011;7329;50.866;4.366;2022-12-29T00:15:02;2.03;;;1.73;;
14486;SDS011;7329;50.866;4.366;2022-12-29T00:17:23;1.70;;;1.60;;
14486;SDS011;7329;50.866;4.366;2022-12-29T00:19:26;1.83;;;1.70;;
14486;SDS011;7329;50.866;4.366;2022-12-29T00:21:46;2.45;;;1.70;;
14486;SDS011;7329;50.866;4.366;2022-12-29T00:24:06;2.17;;;1.58;;
14486;SDS011;7329;50.866;4.366;2022-12-29T00:26:28;2.15;;;1.55;;
14486;SDS011;7329;50.866;4.366;2022-12-29T00:28:48;2.22;;;1.58;;
14486;SDS011;7329;50.866;4.366;2022-12-29T00:31:09;2.10;;;1.73;;
14486;SDS011;7329;50.866;4.366;2022-12-29T00:33:32;2.63;;;1.70;;
14486;SDS011;7329;50.866;4.366;2022-12-29T00:35:53;1.98;;;1.73;;
14486;SDS011;7329;50.866;4.366;2022-12-29T00:37:59;2.00;;;1.80;;
14486;SDS011;7329;50.866;4.366;2022-12-29T00:40:22;2.05;;;1.70;;
14486;SDS011;7329;50.866;4.366;2022-12-29T00:42:42;1.60;;;1.50;;
14486;SDS011;7329;50.866;4.366;2022-12-29T00:45:01;2.28;;;1.75;;
14486;SDS011;7329;50.866;4.366;2022-12-29T00:47:04;1.80;;;1.45;;
14486;SDS011;7329;50.866;4.366;2022-12-29T00:49:08;1.98;;;1.63;;
14486;SDS011;7329;50.866;4.366;2022-12-29T00:51:29;2.03;;;1.50;;
14486;SDS011;7329;50.866;4.366;2022-12-29T00:53:32;2.45;;;1.48;;
14486;SDS011;7329;50.866;4.366;2022-12-29T00:55:36;1.70;;;1.35;;
14486;SDS011;7329;50.866;4.366;2022-12-29T00:57:38;2.53;;;1.70;;
14486;SDS011;7329;50.866;4.366;2022-12-29T00:59:41;1.95;;;1.75;;
14486;SDS011;7329;50.866;4.366;2022-12-29T01:01:44;2.20;;;1.38;;
14486;SDS011;7329;50.866;4.366;2022-12-29T01:03:47;1.75;;;1.65;;
14486;SDS011;7329;50.866;4.366;2022-12-29T01:05:51;2.38;;;1.70;;
14486;SDS011;7329;50.866;4.366;2022-12-29T01:07:53;2.00;;;1.52;;
14486;SDS011;7329;50.866;4.366;2022-12-29T01:09:56;2.35;;;1.85;;
14486;SDS011;7329;50.866;4.366;2022-12-29T01:12:12;1.58;;;1.48;;
14486;SDS011;7329;50.866;4.366;2022-12-29T01:14:15;2.30;;;1.60;;
14486;SDS011;7329;50.866;4.366;2022-12-29T01:16:18;2.05;;;1.55;;
14486;SDS011;7329;50.866;4.366;2022-12-29T01:18:20;1.50;;;1.38;;
14486;SDS011;7329;50.866;4.366;2022-12-29T01:20:23;2.17;;;1.63;;
14486;SDS011;7329;50.866;4.366;2022-12-29T01:22:29;1.40;;;1.30;;
14486;SDS011;7329;50.866;4.366;2022-12-29T01:24:31;1.63;;;1.52;;
14486;SDS011;7329;50.866;4.366;2022-12-29T01:26:34;1.73;;;1.60;;
14486;SDS011;7329;50.866;4.366;2022-12-29T01:28:36;2.35;;;1.67;;
14486;SDS011;7329;50.866;4.366;2022-12-29T01:30:40;2.15;;;1.33;;
14486;SDS011;7329;50.866;4.366;2022-12-29T01:32:42;1.65;;;1.40;;
14486;SDS011;7329;50.866;4.366;2022-12-29T01:34:45;2.28;;;1.65;;
14486;SDS011;7329;50.866;4.366;2022-12-29T01:36:47;2.40;;;1.77;;
14486;SDS011;7329;50.866;4.366;2022-12-29T01:38:51;2.05;;;1.50;;
14486;SDS011;7329;50.866;4.366;2022-12-29T01:40:53;1.35;;;1.10;;
14486;SDS011;7329;50.866;4.366;2022-12-29T01:42:56;2.22;;;1.52;;
14486;SDS011;7329;50.866;4.366;2022-12-29T01:44:58;1.63;;;1.35;;
14486;SDS011;7329;50.866;4.366;2022-12-29T01:47:03;2.65;;;1.77;;
14486;SDS011;7329;50.866;4.366;2022-12-29T01:49:08;3.53;;;2.05;;
14486;SDS011;7329;50.866;4.366;2022-12-29T01:51:13;2.58;;;1.75;;
14486;SDS011;7329;50.866;4.366;2022-12-29T01:53:17;1.80;;;1.52;;
14486;SDS011;7329;50.866;4.366;2022-12-29T01:55:23;2.28;;;1.42;;
14486;SDS011;7329;50.866;4.366;2022-12-29T01:57:27;2.20;;;1.48;;
14486;SDS011;7329;50.866;4.366;2022-12-29T01:59:33;1.60;;;1.42;;
14486;SDS011;7329;50.866;4.366;2022-12-29T02:01:40;2.42;;;1.40;;
14486;SDS011;7329;50.866;4.366;2022-12-29T02:03:42;3.47;;;1.75;;
14486;SDS011;7329;50.866;4.366;2022-12-29T02:05:46;2.28;;;1.30;;
14486;SDS011;7329;50.866;4.366;2022-12-29T02:07:54;2.85;;;1.75;;
14486;SDS011;7329;50.866;4.366;2022-12-29T02:09:56;1.52;;;1.23;;
14486;SDS011;7329;50.866;4.366;2022-12-29T02:12:01;2.10;;;1.42;;
14486;SDS011;7329;50.866;4.366;2022-12-29T02:14:07;1.80;;;1.30;;
14486;SDS011;7329;50.866;4.366;2022-12-29T02:16:14;1.67;;;1.33;;
14486;SDS011;7329;50.866;4.366;2022-12-29T02:18:36;2.17;;;1.40;;
14486;SDS011;7329;50.866;4.366;2022-12-29T02:23:40;2.10;;;1.30;;
14486;SDS011;7329;50.866;4.366;2022-12-29T02:25:59;2.95;;;1.80;;
14486;SDS011;7329;50.866;4.366;2022-12-29T02:28:26;2.08;;;1.42;;
14486;SDS011;7329;50.866;4.366;2022-12-29T02:30:46;2.40;;;1.50;;
14486;SDS011;7329;50.866;4.366;2022-12-29T02:33:04;2.28;;;1.40;;
14486;SDS011;7329;50.866;4.366;2022-12-29T02:35:19;1.52;;;1.23;;
14486;SDS011;7329;50.866;4.366;2022-12-29T02:37:30;1.85;;;1.50;;
14486;SDS011;7329;50.866;4.366;2022-12-29T02:39:41;2.17;;;1.42;;
14486;SDS011;7329;50.866;4.366;2022-12-29T02:41:56;1.83;;;1.27;;
14486;SDS011;7329;50.866;4.366;2022-12-29T02:44:02;1.50;;;1.30;;
14486;SDS011;7329;50.866;4.366;2022-12-29T02:46:17;2.25;;;1.50;;
14486;SDS011;7329;50.866;4.366;2022-12-29T02:48:25;1.48;;;1.33;;
14486;SDS011;7329;50.866;4.366;2022-12-29T02:50:32;1.50;;;1.40;;
14486;SDS011;7329;50.866;4.366;2022-12-29T02:52:38;1.98;;;1.50;;
14486;SDS011;7329;50.866;4.366;2022-12-29T02:54:44;1.40;;;1.30;;
14486;SDS011;7329;50.866;4.366;2022-12-29T02:56:48;1.70;;;1.50;;
14486;SDS011;7329;50.866;4.366;2022-12-29T02:58:50;1.90;;;1.45;;
14486;SDS011;7329;50.866;4.366;2022-12-29T03:01:00;1.40;;;1.30;;
14486;SDS011;7329;50.866;4.366;2022-12-29T03:03:17;1.55;;;1.30;;
14486;SDS011;7329;50.866;4.366;2022-12-29T03:07:58;2.60;;;1.58;;
14486;SDS011;7329;50.866;4.366;2022-12-29T03:10:09;1.92;;;1.40;;
14486;SDS011;7329;50.866;4.366;2022-12-29T03:12:22;1.80;;;1.42;;
14486;SDS011;7329;50.866;4.366;2022-12-29T03:14:52;1.80;;;1.30;;
14486;SDS011;7329;50.866;4.366;2022-12-29T03:17:19;1.98;;;1.20;;
14486;SDS011;7329;50.866;4.366;2022-12-29T03:19:30;1.67;;;1.33;;
14486;SDS011;7329;50.866;4.366;2022-12-29T03:21:37;2.45;;;1.52;;
14486;SDS011;7329;50.866;4.366;2022-12-29T03:24:02;2.60;;;1.38;;
14486;SDS011;7329;50.866;4.366;2022-12-29T03:26:06;1.80;;;1.40;;
14486;SDS011;7329;50.866;4.366;2022-12-29T03:28:13;2.42;;;1.55;;
14486;SDS011;7329;50.866;4.366;2022-12-29T03:30:20;2.90;;;1.60;;
14486;SDS011;7329;50.866;4.366;2022-12-29T03:32:23;1.52;;;1.30;;
14486;SDS011;7329;50.866;4.366;2022-12-29T03:34:30;2.20;;;1.30;;
14486;SDS011;7329;50.866;4.366;2022-12-29T03:36:36;1.90;;;1.42;;
14486;SDS011;7329;50.866;4.366;2022-12-29T03:38:46;1.95;;;1.35;;
14486;SDS011;7329;50.866;4.366;2022-12-29T03:40:52;1.83;;;1.10;;
14486;SDS011;7329;50.866;4.366;2022-12-29T03:42:57;1.60;;;1.45;;
14486;SDS011;7329;50.866;4.366;2022-12-29T03:45:01;2.20;;;1.20;;
14486;SDS011;7329;50.866;4.366;2022-12-29T03:47:09;1.77;;;1.20;;
14486;SDS011;7329;50.866;4.366;2022-12-29T03:49:12;1.73;;;1.20;;
14486;SDS011;7329;50.866;4.366;2022-12-29T03:51:16;2.08;;;1.35;;
14486;SDS011;7329;50.866;4.366;2022-12-29T03:53:18;1.75;;;1.33;;
14486;SDS011;7329;50.866;4.366;2022-12-29T03:55:21;1.92;;;1.30;;
14486;SDS011;7329;50.866;4.366;2022-12-29T03:57:23;2.00;;;1.42;;
14486;SDS011;7329;50.866;4.366;2022-12-29T03:59:25;2.35;;;1.48;;
14486;SDS011;7329;50.866;4.366;2022-12-29T04:01:28;1.63;;;1.13;;
14486;SDS011;7329;50.866;4.366;2022-12-29T04:03:30;1.48;;;1.17;;
14486;SDS011;7329;50.866;4.366;2022-12-29T04:05:32;2.60;;;1.30;;
14486;SDS011;7329;50.866;4.366;2022-12-29T04:07:36;2.20;;;1.45;;
14486;SDS011;7329;50.866;4.366;2022-12-29T04:09:39;2.15;;;1.40;;
14486;SDS011;7329;50.866;4.366;2022-12-29T04:11:41;1.10;;;1.00;;
14486;SDS011;7329;50.866;4.366;2022-12-29T04:13:43;1.67;;;1.00;;
14486;SDS011;7329;50.866;4.366;2022-12-29T04:15:46;1.42;;;1.20;;
14486;SDS011;7329;50.866;4.366;2022-12-29T04:17:48;1.10;;;0.93;;
14486;SDS011;7329;50.866;4.366;2022-12-29T04:19:50;2.60;;;1.30;;
14486;SDS011;7329;50.866;4.366;2022-12-29T04:22:13;2.00;;;1.25;;
14486;SDS011;7329;50.866;4.366;2022-12-29T04:24:16;1.20;;;1.10;;
14486;SDS011;7329;50.866;4.366;2022-12-29T04:26:19;2.13;;;1.52;;
14486;SDS011;7329;50.866;4.366;2022-12-29T04:28:21;1.25;;;1.00;;
14486;SDS011;7329;50.866;4.366;2022-12-29T04:30:24;1.73;;;1.20;;
14486;SDS011;7329;50.866;4.366;2022-12-29T04:32:26;2.47;;;1.27;;
14486;SDS011;7329;50.866;4.366;2022-12-29T04:34:29;2.15;;;1.40;;
14486;SDS011;7329;50.866;4.366;2022-12-29T04:36:31;2.13;;;1.20;;
14486;SDS011;7329;50.866;4.366;2022-12-29T04:38:34;2.10;;;1.10;;
14486;SDS011;7329;50.866;4.366;2022-12-29T04:40:38;1.70;;;1.17;;
14486;SDS011;7329;50.866;4.366;2022-12-29T04:42:41;1.98;;;1.30;;
14486;SDS011;7329;50.866;4.366;2022-12-29T04:44:43;1.40;;;1.00;;
14486;SDS011;7329;50.866;4.366;2022-12-29T04:46:46;1.35;;;1.25;;
14486;SDS011;7329;50.866;4.366;2022-12-29T04:48:48;1.67;;;1.02;;
14486;SDS011;7329;50.866;4.366;2022-12-29T04:50:50;2.03;;;1.23;;
14486;SDS011;7329;50.866;4.366;2022-12-29T04:52:53;2.05;;;1.10;;
14486;SDS011;7329;50.866;4.366;2022-12-29T04:54:55;1.92;;;1.15;;
14486;SDS011;7329;50.866;4.366;2022-12-29T04:56:59;2.25;;;1.27;;
14486;SDS011;7329;50.866;4.366;2022-12-29T04:59:01;1.70;;;1.30;;
14486;SDS011;7329;50.866;4.366;2022-12-29T05:01:03;1.55;;;1.20;;
14486;SDS011;7329;50.866;4.366;2022-12-29T05:03:06;1.60;;;1.30;;
14486;SDS011;7329;50.866;4.366;2022-12-29T05:05:08;1.85;;;1.10;;
14486;SDS011;7329;50.866;4.366;2022-12-29T05:07:11;1.20;;;0.90;;
14486;SDS011;7329;50.866;4.366;2022-12-29T05:09:13;2.42;;;1.13;;
14486;SDS011;7329;50.866;4.366;2022-12-29T05:11:16;1.70;;;1.02;;
14486;SDS011;7329;50.866;4.366;2022-12-29T05:13:20;2.05;;;1.15;;
14486;SDS011;7329;50.866;4.366;2022-12-29T05:15:23;2.00;;;1.38;;
14486;SDS011;7329;50.866;4.366;2022-12-29T05:17:25;2.55;;;1.13;;
14486;SDS011;7329;50.866;4.366;2022-12-29T05:19:28;2.80;;;1.10;;
14486;SDS011;7329;50.866;4.366;2022-12-29T05:21:30;2.42;;;1.40;;
14486;SDS011;7329;50.866;4.366;2022-12-29T05:23:32;1.20;;;1.00;;
14486;SDS011;7329;50.866;4.366;2022-12-29T05:25:35;1.67;;;1.02;;
14486;SDS011;7329;50.866;4.366;2022-12-29T05:27:37;2.45;;;1.38;;
14486;SDS011;7329;50.866;4.366;2022-12-29T05:29:41;1.83;;;1.10;;
14486;SDS011;7329;50.866;4.366;2022-12-29T05:31:43;1.25;;;1.15;;
14486;SDS011;7329;50.866;4.366;2022-12-29T05:33:45;2.22;;;1.25;;
14486;SDS011;7329;50.866;4.366;2022-12-29T05:35:48;1.83;;;1.20;;
14486;SDS011;7329;50.866;4.366;2022-12-29T05:37:50;1.77;;;1.13;;
14486;SDS011;7329;50.866;4.366;2022-12-29T05:39:52;1.35;;;1.13;;
14486;SDS011;7329;50.866;4.366;2022-12-29T05:41:55;2.03;;;1.15;;
14486;SDS011;7329;50.866;4.366;2022-12-29T05:43:57;1.50;;;1.33;;
14486;SDS011;7329;50.866;4.366;2022-12-29T05:46:01;1.70;;;1.20;;
14486;SDS011;7329;50.866;4.366;2022-12-29T05:48:04;1.50;;;1.00;;
14486;SDS011;7329;50.866;4.366;2022-12-29T05:50:07;2.05;;;1.10;;
14486;SDS011;7329;50.866;4.366;2022-12-29T05:52:09;1.70;;;1.00;;
14486;SDS011;7329;50.866;4.366;2022-12-29T05:54:12;3.13;;;1.23;;
14486;SDS011;7329;50.866;4.366;2022-12-29T05:56:15;2.10;;;1.00;;
14486;SDS011;7329;50.866;4.366;2022-12-29T05:58:17;2.20;;;1.20;;
14486;SDS011;7329;50.866;4.366;2022-12-29T06:00:20;2.47;;;1.10;;
14486;SDS011;7329;50.866;4.366;2022-12-29T06:02:23;1.85;;;1.30;;
14486;SDS011;7329;50.866;4.366;2022-12-29T06:04:26;2.38;;;1.27;;
14486;SDS011;7329;50.866;4.366;2022-12-29T06:06:28;1.33;;;1.20;;
14486;SDS011;7329;50.866;4.366;2022-12-29T06:08:31;1.10;;;0.88;;
14486;SDS011;7329;50.866;4.366;2022-12-29T06:10:33;1.08;;;0.90;;
14486;SDS011;7329;50.866;4.366;2022-12-29T06:12:35;1.60;;;0.90;;
14486;SDS011;7329;50.866;4.366;2022-12-29T06:14:38;1.90;;;1.17;;
14486;SDS011;7329;50.866;4.366;2022-12-29T06:16:40;1.85;;;1.13;;
14486;SDS011;7329;50.866;4.366;2022-12-29T06:18:44;1.95;;;1.13;;
14486;SDS011;7329;50.866;4.366;2022-12-29T06:20:47;1.77;;;1.05;;
14486;SDS011;7329;50.866;4.366;2022-12-29T06:22:49;1.58;;;0.98;;
14486;SDS011;7329;50.866;4.366;2022-12-29T06:24:51;1.17;;;1.00;;
14486;SDS011;7329;50.866;4.366;2022-12-29T06:26:54;1.40;;;0.98;;
14486;SDS011;7329;50.866;4.366;2022-12-29T06:28:56;1.88;;;0.98;;
14486;SDS011;7329;50.866;4.366;2022-12-29T06:30:58;1.73;;;1.20;;
14486;SDS011;7329;50.866;4.366;2022-12-29T06:33:03;1.60;;;1.00;;
14486;SDS011;7329;50.866;4.366;2022-12-29T06:35:07;2.35;;;1.02;;
14486;SDS011;7329;50.866;4.366;2022-12-29T06:37:10;1.70;;;1.10;;
14486;SDS011;7329;50.866;4.366;2022-12-29T06:39:13;1.80;;;0.80;;
14486;SDS011;7329;50.866;4.366;2022-12-29T06:41:16;2.03;;;1.40;;
14486;SDS011;7329;50.866;4.366;2022-12-29T06:43:18;1.77;;;0.80;;
14486;SDS011;7329;50.866;4.366;2022-12-29T06:45:20;1.52;;;0.82;;
14486;SDS011;7329;50.866;4.366;2022-12-29T06:47:23;1.45;;;0.90;;
14486;SDS011;7329;50.866;4.366;2022-12-29T06:49:25;1.90;;;0.90;;
14486;SDS011;7329;50.866;4.366;2022-12-29T06:51:29;1.20;;;0.80;;
14486;SDS011;7329;50.866;4.366;2022-12-29T06:53:31;1.20;;;0.85;;
14486;SDS011;7329;50.866;4.366;2022-12-29T06:55:33;2.53;;;1.15;;
14486;SDS011;7329;50.866;4.366;2022-12-29T06:57:36;2.92;;;0.80;;
14486;SDS011;7329;50.866;4.366;2022-12-29T06:59:38;1.95;;;1.05;;
14486;SDS011;7329;50.866;4.366;2022-12-29T07:01:40;1.70;;;0.95;;
14486;SDS011;7329;50.866;4.366;2022-12-29T07:03:43;2.30;;;0.82;;
14486;SDS011;7329;50.866;4.366;2022-12-29T07:05:45;2.63;;;1.27;;
14486;SDS011;7329;50.866;4.366;2022-12-29T07:07:49;2.40;;;1.10;;
14486;SDS011;7329;50.866;4.366;2022-12-29T07:09:51;1.55;;;0.90;;
14486;SDS011;7329;50.866;4.366;2022-12-29T07:11:54;1.27;;;1.00;;
14486;SDS011;7329;50.866;4.366;2022-12-29T07:13:56;1.35;;;0.98;;
14486;SDS011;7329;50.866;4.366;2022-12-29T07:15:58;2.13;;;1.00;;
14486;SDS011;7329;50.866;4.366;2022-12-29T07:18:01;2.40;;;1.10;;
14486;SDS011;7329;50.866;4.366;2022-12-29T07:20:04;2.28;;;1.10;;
14486;SDS011;7329;50.866;4.366;2022-12-29T07:22:08;2.30;;;0.95;;
14486;SDS011;7329;50.866;4.366;2022-12-29T07:24:12;2.75;;;1.13;;
14486;SDS011;7329;50.866;4.366;2022-12-29T07:26:15;1.67;;;0.82;;
14486;SDS011;7329;50.866;4.366;2022-12-29T07:28:18;1.60;;;0.90;;
14486;SDS011;7329;50.866;4.366;2022-12-29T07:30:20;1.55;;;1.00;;
14486;SDS011;7329;50.866;4.366;2022-12-29T07:32:23;2.13;;;1.05;;
14486;SDS011;7329;50.866;4.366;2022-12-29T07:34:25;2.75;;;1.20;;
14486;SDS011;7329;50.866;4.366;2022-12-29T07:36:27;1.95;;;1.00;;
14486;SDS011;7329;50.866;4.366;2022-12-29T07:38:30;2.15;;;1.10;;
14486;SDS011;7329;50.866;4.366;2022-12-29T07:40:33;1.50;;;1.10;;
14486;SDS011;7329;50.866;4.366;2022-12-29T07:42:36;2.38;;;1.00;;
14486;SDS011;7329;50.866;4.366;2022-12-29T07:44:38;3.05;;;0.95;;
14486;SDS011;7329;50.866;4.366;2022-12-29T07:46:40;1.85;;;1.10;;
14486;SDS011;7329;50.866;4.366;2022-12-29T07:48:43;2.55;;;0.90;;
14486;SDS011;7329;50.866;4.366;2022-12-29T07:50:45;2.55;;;1.02;;
14486;SDS011;7329;50.866;4.366;2022-12-29T07:52:47;2.13;;;1.05;;
14486;SDS011;7329;50.866;4.366;2022-12-29T07:54:50;2.42;;;0.93;;
14486;SDS011;7329;50.866;4.366;2022-12-29T07:56:53;3.08;;;0.95;;
14486;SDS011;7329;50.866;4.366;2022-12-29T07:58:56;2.35;;;0.95;;
14486;SDS011;7329;50.866;4.366;2022-12-29T08:00:58;1.90;;;1.02;;
14486;SDS011;7329;50.866;4.366;2022-12-29T08:03:01;3.00;;;1.15;;
14486;SDS011;7329;50.866;4.366;2022-12-29T08:05:03;1.65;;;1.05;;
14486;SDS011;7329;50.866;4.366;2022-12-29T08:07:06;2.22;;;0.82;;
14486;SDS011;7329;50.866;4.366;2022-12-29T08:09:09;4.50;;;1.30;;
14486;SDS011;7329;50.866;4.366;2022-12-29T08:11:11;3.00;;;1.08;;
14486;SDS011;7329;50.866;4.366;2022-12-29T08:13:15;2.13;;;1.30;;
14486;SDS011;7329;50.866;4.366;2022-12-29T08:15:17;1.92;;;0.85;;
14486;SDS011;7329;50.866;4.366;2022-12-29T08:17:19;2.50;;;1.30;;
14486;SDS011;7329;50.866;4.366;2022-12-29T08:19:22;1.80;;;0.90;;
14486;SDS011;7329;50.866;4.366;2022-12-29T08:21:24;2.22;;;0.95;;
14486;SDS011;7329;50.866;4.366;2022-12-29T08:23:28;2.55;;;1.10;;
14486;SDS011;7329;50.866;4.366;2022-12-29T08:25:30;2.75;;;1.05;;
14486;SDS011;7329;50.866;4.366;2022-12-29T08:27:33;1.05;;;0.90;;
14486;SDS011;7329;50.866;4.366;2022-12-29T08:29:36;1.27;;;0.80;;
14486;SDS011;7329;50.866;4.366;2022-12-29T08:31:39;2.95;;;1.10;;
14486;SDS011;7329;50.866;4.366;2022-12-29T08:33:41;2.72;;;1.00;;
14486;SDS011;7329;50.866;4.366;2022-12-29T08:35:44;2.42;;;1.20;;
14486;SDS011;7329;50.866;4.366;2022-12-29T08:37:46;2.00;;;1.00;;
14486;SDS011;7329;50.866;4.366;2022-12-29T08:39:49;3.63;;;1.30;;
14486;SDS011;7329;50.866;4.366;2022-12-29T08:41:51;3.10;;;1.17;;
14486;SDS011;7329;50.866;4.366;2022-12-29T08:43:53;3.20;;;1.02;;
14486;SDS011;7329;50.866;4.366;2022-12-29T08:45:58;2.97;;;1.33;;
14486;SDS011;7329;50.866;4.366;2022-12-29T08:48:00;2.90;;;1.10;;
14486;SDS011;7329;50.866;4.366;2022-12-29T08:50:03;2.30;;;0.80;;
14486;SDS011;7329;50.866;4.366;2022-12-29T08:52:07;3.53;;;1.25;;
14486;SDS011;7329;50.866;4.366;2022-12-29T08:54:09;2.25;;;1.00;;
14486;SDS011;7329;50.866;4.366;2022-12-29T08:56:12;2.53;;;1.25;;
14486;SDS011;7329;50.866;4.366;2022-12-29T08:58:14;3.55;;;0.85;;
14486;SDS011;7329;50.866;4.366;2022-12-29T09:00:18;2.60;;;0.93;;
14486;SDS011;7329;50.866;4.366;2022-12-29T09:02:22;3.10;;;0.98;;
14486;SDS011;7329;50.866;4.366;2022-12-29T09:04:25;1.98;;;1.00;;
14486;SDS011;7329;50.866;4.366;2022-12-29T09:06:27;2.85;;;1.00;;
14486;SDS011;7329;50.866;4.366;2022-12-29T09:08:33;2.15;;;1.13;;
14486;SDS011;7329;50.866;4.366;2022-12-29T09:10:35;2.53;;;1.00;;
14486;SDS011;7329;50.866;4.366;2022-12-29T09:12:37;2.85;;;1.27;;
14486;SDS011;7329;50.866;4.366;2022-12-29T09:14:40;2.58;;;1.00;;
14486;SDS011;7329;50.866;4.366;2022-12-29T09:16:43;3.08;;;1.20;;
14486;SDS011;7329;50.866;4.366;2022-12-29T09:19:04;3.45;;;1.15;;
14486;SDS011;7329;50.866;4.366;2022-12-29T09:21:07;2.55;;;1.10;;
14486;SDS011;7329;50.866;4.366;2022-12-29T09:23:11;2.28;;;0.90;;
14486;SDS011;7329;50.866;4.366;2022-12-29T09:25:13;2.10;;;0.82;;
14486;SDS011;7329;50.866;4.366;2022-12-29T09:27:16;1.58;;;0.80;;
14486;SDS011;7329;50.866;4.366;2022-12-29T09:29:18;6.00;;;1.30;;
14486;SDS011;7329;50.866;4.366;2022-12-29T09:31:21;2.90;;;1.20;;
14486;SDS011;7329;50.866;4.366;2022-12-29T09:33:23;2.47;;;0.80;;
14486;SDS011;7329;50.866;4.366;2022-12-29T09:35:27;2.20;;;1.02;;
14486;SDS011;7329;50.866;4.366;2022-12-29T09:37:30;3.10;;;0.93;;
14486;SDS011;7329;50.866;4.366;2022-12-29T09:39:32;3.75;;;0.98;;
14486;SDS011;7329;50.866;4.366;2022-12-29T09:41:36;3.72;;;1.50;;
14486;SDS011;7329;50.866;4.366;2022-12-29T09:46:09;2.17;;;1.20;;
14486;SDS011;7329;50.866;4.366;2022-12-29T09:48:19;2.65;;;1.10;;
14486;SDS011;7329;50.866;4.366;2022-12-29T09:50:26;4.35;;;1.30;;
14486;SDS011;7329;50.866;4.366;2022-12-29T09:52:34;2.05;;;1.17;;
14486;SDS011;7329;50.866;4.366;2022-12-29T09:54:45;2.92;;;1.00;;
14486;SDS011;7329;50.866;4.366;2022-12-29T09:56:53;3.00;;;0.98;;
14486;SDS011;7329;50.866;4.366;2022-12-29T09:58:58;3.28;;;1.10;;
14486;SDS011;7329;50.866;4.366;2022-12-29T10:01:04;3.85;;;1.02;;
14486;SDS011;7329;50.866;4.366;2022-12-29T10:03:10;2.35;;;0.95;;
14486;SDS011;7329;50.866;4.366;2022-12-29T10:05:27;2.15;;;0.90;;
14486;SDS011;7329;50.866;4.366;2022-12-29T10:07:38;2.75;;;0.95;;
14486;SDS011;7329;50.866;4.366;2022-12-29T10:09:49;2.28;;;1.13;;
14486;SDS011;7329;50.866;4.366;2022-12-29T10:12:03;4.15;;;1.10;;
14486;SDS011;7329;50.866;4.366;2022-12-29T10:14:25;2.30;;;1.02;;
14486;SDS011;7329;50.866;4.366;2022-12-29T10:16:36;1.67;;;0.93;;
14486;SDS011;7329;50.866;4.366;2022-12-29T10:18:56;3.17;;;1.23;;
14486;SDS011;7329;50.866;4.366;2022-12-29T10:21:15;2.25;;;1.17;;
14486;SDS011;7329;50.866;4.366;2022-12-29T10:23:27;3.95;;;1.13;;
14486;SDS011;7329;50.866;4.366;2022-12-29T10:25:34;2.35;;;1.17;;
14486;SDS011;7329;50.866;4.366;2022-12-29T10:27:40;2.15;;;1.02;;
14486;SDS011;7329;50.866;4.366;2022-12-29T10:29:46;3.15;;;1.27;;
14486;SDS011;7329;50.866;4.366;2022-12-29T10:31:54;3.53;;;1.10;;
14486;SDS011;7329;50.866;4.366;2022-12-29T10:34:02;3.17;;;1.27;;
14486;SDS011;7329;50.866;4.366;2022-12-29T10:36:12;2.80;;;1.13;;
14486;SDS011;7329;50.866;4.366;2022-12-29T10:38:20;3.75;;;1.08;;
14486;SDS011;7329;50.866;4.366;2022-12-29T10:40:29;2.03;;;0.90;;
14486;SDS011;7329;50.866;4.366;2022-12-29T10:42:39;4.05;;;1.00;;
14486;SDS011;7329;50.866;4.366;2022-12-29T10:44:44;2.97;;;1.13;;
14486;SDS011;7329;50.866;4.366;2022-12-29T10:46:51;2.25;;;1.10;;
14486;SDS011;7329;50.866;4.366;2022-12-29T10:48:57;3.28;;;1.17;;
14486;SDS011;7329;50.866;4.366;2022-12-29T10:51:01;4.50;;;1.30;;
14486;SDS011;7329;50.866;4.366;2022-12-29T10:53:07;3.05;;;1.17;;
14486;SDS011;7329;50.866;4.366;2022-12-29T10:55:11;3.05;;;1.08;;
14486;SDS011;7329;50.866;4.366;2022-12-29T10:57:19;3.45;;;1.10;;
14486;SDS011;7329;50.866;4.366;2022-12-29T10:59:28;3.55;;;1.15;;
14486;SDS011;7329;50.866;4.366;2022-12-29T11:01:34;2.33;;;1.02;;
14486;SDS011;7329;50.866;4.366;2022-12-29T11:03:45;3.47;;;1.15;;
14486;SDS011;7329;50.866;4.366;2022-12-29T11:06:00;4.78;;;1.40;;
14486;SDS011;7329;50.866;4.366;2022-12-29T11:08:10;2.42;;;1.30;;
14486;SDS011;7329;50.866;4.366;2022-12-29T11:10:16;4.38;;;1.30;;
14486;SDS011;7329;50.866;4.366;2022-12-29T11:12:22;4.97;;;1.60;;
14486;SDS011;7329;50.866;4.366;2022-12-29T11:14:27;4.40;;;1.30;;
14486;SDS011;7329;50.866;4.366;2022-12-29T11:16:31;3.38;;;1.33;;
14486;SDS011;7329;50.866;4.366;2022-12-29T11:18:35;2.80;;;1.05;;
14486;SDS011;7329;50.866;4.366;2022-12-29T11:20:39;3.92;;;1.40;;
14486;SDS011;7329;50.866;4.366;2022-12-29T11:22:43;3.90;;;1.52;;
14486;SDS011;7329;50.866;4.366;2022-12-29T11:24:48;4.88;;;1.30;;
14486;SDS011;7329;50.866;4.366;2022-12-29T11:26:52;3.33;;;1.30;;
14486;SDS011;7329;50.866;4.366;2022-12-29T11:29:16;3.90;;;1.20;;
14486;SDS011;7329;50.866;4.366;2022-12-29T11:31:22;3.03;;;1.20;;
14486;SDS011;7329;50.866;4.366;2022-12-29T11:33:27;2.88;;;1.38;;
14486;SDS011;7329;50.866;4.366;2022-12-29T11:35:30;4.10;;;1.50;;
14486;SDS011;7329;50.866;4.366;2022-12-29T11:37:36;3.10;;;1.27;;
14486;SDS011;7329;50.866;4.366;2022-12-29T11:39:41;3.20;;;1.48;;
14486;SDS011;7329;50.866;4.366;2022-12-29T11:41:52;4.18;;;1.17;;
14486;SDS011;7329;50.866;4.366;2022-12-29T11:43:55;2.95;;;1.15;;
14486;SDS011;7329;50.866;4.366;2022-12-29T11:46:00;3.22;;;1.58;;
14486;SDS011;7329;50.866;4.366;2022-12-29T11:48:06;2.15;;;1.20;;
14486;SDS011;7329;50.866;4.366;2022-12-29T11:50:15;3.33;;;1.30;;
14486;SDS011;7329;50.866;4.366;2022-12-29T11:52:21;4.78;;;1.20;;
14486;SDS011;7329;50.866;4.366;2022-12-29T11:54:25;2.88;;;1.15;;
14486;SDS011;7329;50.866;4.366;2022-12-29T11:56:34;3.92;;;1.17;;
14486;SDS011;7329;50.866;4.366;2022-12-29T11:58:38;5.80;;;1.38;;
14486;SDS011;7329;50.866;4.366;2022-12-29T12:00:41;4.13;;;1.10;;
14486;SDS011;7329;50.866;4.366;2022-12-29T12:02:50;3.33;;;1.15;;
14486;SDS011;7329;50.866;4.366;2022-12-29T12:04:59;3.55;;;1.35;;
14486;SDS011;7329;50.866;4.366;2022-12-29T12:07:10;2.13;;;0.95;;
14486;SDS011;7329;50.866;4.366;2022-12-29T12:09:19;3.20;;;1.08;;
14486;SDS011;7329;50.866;4.366;2022-12-29T12:11:28;2.65;;;1.55;;
14486;SDS011;7329;50.866;4.366;2022-12-29T12:13:39;3.42;;;1.42;;
14486;SDS011;7329;50.866;4.366;2022-12-29T12:15:59;3.95;;;1.33;;
14486;SDS011;7329;50.866;4.366;2022-12-29T12:18:08;3.78;;;1.48;;
14486;SDS011;7329;50.866;4.366;2022-12-29T12:20:19;2.42;;;1.27;;
14486;SDS011;7329;50.866;4.366;2022-12-29T12:22:25;3.03;;;1.30;;
14486;SDS011;7329;50.866;4.366;2022-12-29T12:24:34;3.90;;;1.45;;
14486;SDS011;7329;50.866;4.366;2022-12-29T12:26:42;4.13;;;1.20;;
14486;SDS011;7329;50.866;4.366;2022-12-29T12:28:55;4.00;;;1.60;;
14486;SDS011;7329;50.866;4.366;2022-12-29T12:31:01;2.38;;;1.20;;
14486;SDS011;7329;50.866;4.366;2022-12-29T12:33:10;4.13;;;1.42;;
14486;SDS011;7329;50.866;4.366;2022-12-29T12:35:22;3.67;;;1.40;;
14486;SDS011;7329;50.866;4.366;2022-12-29T12:40:04;3.53;;;1.48;;
14486;SDS011;7329;50.866;4.366;2022-12-29T12:42:28;4.45;;;1.23;;
14486;SDS011;7329;50.866;4.366;2022-12-29T12:44:45;4.53;;;1.27;;
14486;SDS011;7329;50.866;4.366;2022-12-29T12:47:03;4.40;;;1.50;;
14486;SDS011;7329;50.866;4.366;2022-12-29T12:49:24;4.60;;;1.15;;
14486;SDS011;7329;50.866;4.366;2022-12-29T12:51:44;5.05;;;1.42;;
14486;SDS011;7329;50.866;4.366;2022-12-29T12:53:58;2.58;;;1.35;;
14486;SDS011;7329;50.866;4.366;2022-12-29T12:58:47;2.92;;;1.23;;
14486;SDS011;7329;50.866;4.366;2022-12-29T13:00:58;3.65;;;1.17;;
14486;SDS011;7329;50.866;4.366;2022-12-29T13:03:12;3.58;;;1.27;;